sensor_id;sensor_type;location;lat;lon;timestamp;pressure;altitude;pressure_sealevel;temperature;humidity
62111;BME280;48102;47.526;19.072;2022-09-09T03:44:08;100202.56;;;15.72;100.00
62111;BME280;48102;47.526;19.072;2022-09-09T03:47:12;100202.56;;;15.72;100.00
62111;BME280;48102;47.526;19.072;2022-09-09T03:50:16;100199.91;;;15.22;100.00
62111;BME280;48102;47.526;19.072;2022-09-09T03:53:23;100198.94;;;15.23;100.00
62111;BME280;48102;47.526;19.072;2022-09-09T03:56:27;100199.41;;;15.17;100.00
62111;BME280;48102;47.526;19.072;2022-09-09T03:59:30;100220.31;;;15.22;100.00
62111;BME280;48102;47.526;19.072;2022-09-09T04:02:33;100223.69;;;15.24;100.00
62111;BME280;48102;47.526;19.072;2022-09-09T04:05:36;100218.50;;;15.22;100.00
62111;BME280;48102;47.526;19.072;2022-09-09T04:08:43;100217.19;;;15.28;100.00
62111;BME280;48102;47.526;19.072;2022-09-09T04:11:48;100219.00;;;15.27;100.00
62111;BME280;48102;47.526;19.072;2022-09-09T04:14:51;100218.16;;;15.27;100.00
62111;BME280;48102;47.526;19.072;2022-09-09T04:17:54;100213.63;;;15.16;100.00
62111;BME280;48102;47.526;19.072;2022-09-09T04:20:57;100216.37;;;15.15;100.00
62111;BME280;48102;47.526;19.072;2022-09-09T04:24:00;100232.22;;;15.16;100.00
62111;BME280;48102;47.526;19.072;2022-09-09T04:27:03;100228.81;;;15.14;100.00
62111;BME280;48102;47.526;19.072;2022-09-09T04:30:07;100232.53;;;15.12;100.00
62111;BME280;48102;47.526;19.072;2022-09-09T04:33:11;100230.63;;;15.14;100.00
62111;BME280;48102;47.526;19.072;2022-09-09T04:36:15;100221.69;;;15.15;100.00
62111;BME280;48102;47.526;19.072;2022-09-09T04:39:18;100225.19;;;15.15;100.00
62111;BME280;48102;47.526;19.072;2022-09-09T04:42:23;100226.13;;;15.27;100.00
62111;BME280;48102;47.526;19.072;2022-09-09T04:45:26;100222.94;;;15.35;100.00
62111;BME280;48102;47.526;19.072;2022-09-09T04:48:29;100221.75;;;15.39;100.00
62111;BME280;48102;47.526;19.072;2022-09-09T04:51:34;100214.59;;;15.52;100.00
62111;BME280;48102;47.526;19.072;2022-09-09T04:54:38;100211.09;;;15.64;100.00
62111;BME280;48102;47.526;19.072;2022-09-09T04:57:42;100213.78;;;15.75;100.00
62111;BME280;48102;47.526;19.072;2022-09-09T05:00:45;100211.09;;;15.88;100.00
62111;BME280;48102;47.526;19.072;2022-09-09T05:03:49;100218.16;;;16.00;100.00
62111;BME280;48102;47.526;19.072;2022-09-09T05:06:52;100215.06;;;16.42;100.00
62111;BME280;48102;47.526;19.072;2022-09-09T05:09:54;100227.37;;;16.89;100.00
62111;BME280;48102;47.526;19.072;2022-09-09T05:12:59;100226.53;;;16.77;100.00
62111;BME280;48102;47.526;19.072;2022-09-09T05:16:02;100222.16;;;16.76;100.00
62111;BME280;48102;47.526;19.072;2022-09-09T05:19:06;100223.63;;;16.92;100.00
62111;BME280;48102;47.526;19.072;2022-09-09T05:22:11;100226.19;;;16.93;100.00
62111;BME280;48102;47.526;19.072;2022-09-09T05:25:14;100220.50;;;16.98;100.00
62111;BME280;48102;47.526;19.072;2022-09-09T05:28:17;100221.69;;;17.16;100.00
62111;BME280;48102;47.526;19.072;2022-09-09T05:31:21;100222.38;;;17.52;100.00
62111;BME280;48102;47.526;19.072;2022-09-09T05:34:24;100226.03;;;17.62;100.00
62111;BME280;48102;47.526;19.072;2022-09-09T05:37:28;100231.25;;;17.75;100.00
62111;BME280;48102;47.526;19.072;2022-09-09T05:40:33;100230.94;;;17.89;100.00
62111;BME280;48102;47.526;19.072;2022-09-09T05:43:36;100230.31;;;17.97;100.00
62111;BME280;48102;47.526;19.072;2022-09-09T05:46:39;100237.16;;;18.11;100.00
62111;BME280;48102;47.526;19.072;2022-09-09T05:49:42;100237.00;;;18.23;100.00
62111;BME280;48102;47.526;19.072;2022-09-09T05:52:45;100238.75;;;18.34;100.00
62111;BME280;48102;47.526;19.072;2022-09-09T05:55:48;100233.56;;;18.53;100.00
62111;BME280;48102;47.526;19.072;2022-09-09T05:58:51;100233.13;;;18.69;100.00
62111;BME280;48102;47.526;19.072;2022-09-09T06:01:57;100236.13;;;18.76;100.00
62111;BME280;48102;47.526;19.072;2022-09-09T06:05:00;100227.91;;;18.89;100.00
62111;BME280;48102;47.526;19.072;2022-09-09T06:08:03;100239.88;;;18.94;100.00
62111;BME280;48102;47.526;19.072;2022-09-09T06:11:10;100234.47;;;19.05;100.00
62111;BME280;48102;47.526;19.072;2022-09-09T06:14:13;100238.38;;;19.32;100.00
62111;BME280;48102;47.526;19.072;2022-09-09T06:17:16;100243.31;;;19.77;100.00
62111;BME280;48102;47.526;19.072;2022-09-09T06:20:19;100243.06;;;20.09;100.00
62111;BME280;48102;47.526;19.072;2022-09-09T06:23:22;100252.09;;;20.27;98.90
62111;BME280;48102;47.526;19.072;2022-09-09T06:26:30;100243.94;;;20.48;96.07
62111;BME280;48102;47.526;19.072;2022-09-09T06:29:34;100241.84;;;20.52;96.04
62111;BME280;48102;47.526;19.072;2022-09-09T06:32:37;100249.56;;;20.55;95.17
62111;BME280;48102;47.526;19.072;2022-09-09T06:35:41;100253.63;;;20.78;95.76
62111;BME280;48102;47.526;19.072;2022-09-09T06:38:45;100258.66;;;20.91;89.79
62111;BME280;48102;47.526;19.072;2022-09-09T06:41:48;100255.62;;;21.14;88.15
62111;BME280;48102;47.526;19.072;2022-09-09T06:44:53;100256.69;;;21.30;85.99
62111;BME280;48102;47.526;19.072;2022-09-09T06:47:56;100243.47;;;21.29;84.60
62111;BME280;48102;47.526;19.072;2022-09-09T06:51:08;100241.63;;;21.29;85.77
62111;BME280;48102;47.526;19.072;2022-09-09T06:54:12;100247.69;;;21.32;84.33
62111;BME280;48102;47.526;19.072;2022-09-09T06:57:16;100252.78;;;21.25;83.78
62111;BME280;48102;47.526;19.072;2022-09-09T07:00:40;100252.50;;;21.18;84.18
62111;BME280;48102;47.526;19.072;2022-09-09T07:03:49;100247.34;;;20.97;82.13
62111;BME280;48102;47.526;19.072;2022-09-09T07:06:53;100257.81;;;20.81;86.05
62111;BME280;48102;47.526;19.072;2022-09-09T07:09:56;100269.28;;;20.64;87.83
62111;BME280;48102;47.526;19.072;2022-09-09T07:12:58;100265.31;;;20.29;89.13
62111;BME280;48102;47.526;19.072;2022-09-09T07:16:14;100263.34;;;20.02;91.92
62111;BME280;48102;47.526;19.072;2022-09-09T07:19:17;100269.50;;;19.83;95.28
62111;BME280;48102;47.526;19.072;2022-09-09T07:22:21;100266.06;;;19.62;97.10
62111;BME280;48102;47.526;19.072;2022-09-09T07:25:24;100263.19;;;19.53;98.58
62111;BME280;48102;47.526;19.072;2022-09-09T07:28:30;100263.91;;;19.86;96.35
62111;BME280;48102;47.526;19.072;2022-09-09T07:31:36;100268.25;;;19.97;96.50
62111;BME280;48102;47.526;19.072;2022-09-09T07:34:40;100271.50;;;19.91;95.41
62111;BME280;48102;47.526;19.072;2022-09-09T07:37:43;100278.13;;;20.06;94.40
62111;BME280;48102;47.526;19.072;2022-09-09T07:41:03;100276.31;;;20.26;92.28
62111;BME280;48102;47.526;19.072;2022-09-09T07:44:12;100286.03;;;20.37;90.89
62111;BME280;48102;47.526;19.072;2022-09-09T07:47:16;100286.62;;;20.50;89.04
62111;BME280;48102;47.526;19.072;2022-09-09T07:50:19;100286.88;;;20.76;89.89
62111;BME280;48102;47.526;19.072;2022-09-09T07:53:22;100280.66;;;20.85;87.75
62111;BME280;48102;47.526;19.072;2022-09-09T07:56:26;100280.66;;;20.95;86.24
62111;BME280;48102;47.526;19.072;2022-09-09T07:59:29;100287.97;;;20.93;86.06
62111;BME280;48102;47.526;19.072;2022-09-09T08:02:33;100287.09;;;21.12;85.52
62111;BME280;48102;47.526;19.072;2022-09-09T08:05:36;100283.56;;;21.11;85.88
62111;BME280;48102;47.526;19.072;2022-09-09T08:08:42;100281.44;;;21.15;83.62
62111;BME280;48102;47.526;19.072;2022-09-09T08:11:46;100286.91;;;21.23;83.55
62111;BME280;48102;47.526;19.072;2022-09-09T08:14:49;100289.03;;;21.29;82.14
62111;BME280;48102;47.526;19.072;2022-09-09T08:17:55;100291.97;;;21.36;83.20
62111;BME280;48102;47.526;19.072;2022-09-09T08:21:05;100291.97;;;21.36;79.33
62111;BME280;48102;47.526;19.072;2022-09-09T08:24:09;100282.25;;;21.35;81.84
62111;BME280;48102;47.526;19.072;2022-09-09T08:27:18;100281.06;;;21.47;81.18
62111;BME280;48102;47.526;19.072;2022-09-09T08:30:22;100281.03;;;21.57;76.96
62111;BME280;48102;47.526;19.072;2022-09-09T08:33:25;100281.97;;;21.65;77.61
62111;BME280;48102;47.526;19.072;2022-09-09T08:36:30;100278.84;;;21.70;74.35
62111;BME280;48102;47.526;19.072;2022-09-09T08:39:36;100265.91;;;21.83;76.58
62111;BME280;48102;47.526;19.072;2022-09-09T08:42:45;100269.44;;;21.84;73.82
62111;BME280;48102;47.526;19.072;2022-09-09T08:46:00;100271.75;;;21.96;76.56
62111;BME280;48102;47.526;19.072;2022-09-09T08:56:04;100279.34;;;22.28;75.84
62111;BME280;48102;47.526;19.072;2022-09-09T08:59:17;100288.50;;;22.44;72.88
62111;BME280;48102;47.526;19.072;2022-09-09T09:02:26;100283.22;;;22.52;72.22
62111;BME280;48102;47.526;19.072;2022-09-09T09:05:46;100286.22;;;22.67;72.57
62111;BME280;48102;47.526;19.072;2022-09-09T09:12:42;100286.69;;;22.88;70.01
62111;BME280;48102;47.526;19.072;2022-09-09T09:15:52;100282.31;;;22.87;69.73
62111;BME280;48102;47.526;19.072;2022-09-09T09:18:56;100270.66;;;22.96;67.23
62111;BME280;48102;47.526;19.072;2022-09-09T09:22:26;100268.84;;;23.05;65.29
62111;BME280;48102;47.526;19.072;2022-09-09T09:25:38;100266.75;;;23.17;65.85
62111;BME280;48102;47.526;19.072;2022-09-09T09:28:42;100278.97;;;23.37;64.50
62111;BME280;48102;47.526;19.072;2022-09-09T09:31:52;100266.09;;;23.57;64.28
62111;BME280;48102;47.526;19.072;2022-09-09T09:34:58;100264.72;;;23.45;62.71
62111;BME280;48102;47.526;19.072;2022-09-09T09:38:01;100254.13;;;23.51;63.32
62111;BME280;48102;47.526;19.072;2022-09-09T09:41:38;100251.53;;;23.68;63.97
62111;BME280;48102;47.526;19.072;2022-09-09T09:44:41;100254.63;;;23.81;61.02
62111;BME280;48102;47.526;19.072;2022-09-09T09:47:45;100247.91;;;23.93;62.78
62111;BME280;48102;47.526;19.072;2022-09-09T09:50:52;100245.75;;;23.97;63.18
62111;BME280;48102;47.526;19.072;2022-09-09T09:54:07;100252.66;;;24.16;62.51
62111;BME280;48102;47.526;19.072;2022-09-09T09:57:14;100254.84;;;24.12;60.22
62111;BME280;48102;47.526;19.072;2022-09-09T10:00:22;100254.84;;;24.20;61.22
62111;BME280;48102;47.526;19.072;2022-09-09T10:03:31;100255.88;;;24.27;59.40
62111;BME280;48102;47.526;19.072;2022-09-09T10:06:37;100255.91;;;24.60;60.65
62111;BME280;48102;47.526;19.072;2022-09-09T10:09:42;100252.88;;;24.80;57.13
62111;BME280;48102;47.526;19.072;2022-09-09T10:12:57;100251.13;;;24.95;56.25
62111;BME280;48102;47.526;19.072;2022-09-09T10:16:27;100241.91;;;24.73;57.92
62111;BME280;48102;47.526;19.072;2022-09-09T10:19:34;100248.16;;;24.49;54.85
62111;BME280;48102;47.526;19.072;2022-09-09T10:22:39;100255.53;;;24.96;55.85
62111;BME280;48102;47.526;19.072;2022-09-09T10:36:12;100250.50;;;26.34;49.30
62111;BME280;48102;47.526;19.072;2022-09-09T10:42:39;100246.41;;;27.58;46.03
62111;BME280;48102;47.526;19.072;2022-09-09T10:45:50;100242.84;;;27.87;46.08
62111;BME280;48102;47.526;19.072;2022-09-09T10:55:53;100259.00;;;28.16;44.69
62111;BME280;48102;47.526;19.072;2022-09-09T10:59:16;100240.00;;;27.44;45.63
62111;BME280;48102;47.526;19.072;2022-09-09T11:02:29;100236.19;;;27.23;46.01
62111;BME280;48102;47.526;19.072;2022-09-09T11:05:43;100236.81;;;26.96;47.73
62111;BME280;48102;47.526;19.072;2022-09-09T11:08:51;100245.47;;;27.06;48.45
62111;BME280;48102;47.526;19.072;2022-09-09T11:12:00;100250.87;;;27.06;47.02
62111;BME280;48102;47.526;19.072;2022-09-09T11:15:22;100242.12;;;27.04;47.68
62111;BME280;48102;47.526;19.072;2022-09-09T11:18:29;100235.03;;;26.88;47.34
62111;BME280;48102;47.526;19.072;2022-09-09T11:21:41;100222.00;;;26.54;49.05
62111;BME280;48102;47.526;19.072;2022-09-09T11:31:49;100222.72;;;27.00;47.57
62111;BME280;48102;47.526;19.072;2022-09-09T11:38:21;100213.69;;;27.89;45.50
62111;BME280;48102;47.526;19.072;2022-09-09T11:41:34;100230.94;;;28.45;44.10
62111;BME280;48102;47.526;19.072;2022-09-09T11:44:40;100228.44;;;28.72;42.73
62111;BME280;48102;47.526;19.072;2022-09-09T11:47:52;100217.63;;;28.29;42.52
62111;BME280;48102;47.526;19.072;2022-09-09T11:51:09;100207.88;;;28.35;40.86
62111;BME280;48102;47.526;19.072;2022-09-09T11:54:30;100203.41;;;28.42;42.06
62111;BME280;48102;47.526;19.072;2022-09-09T11:57:36;100203.09;;;28.86;40.55
62111;BME280;48102;47.526;19.072;2022-09-09T12:00:48;100209.81;;;29.32;43.63
62111;BME280;48102;47.526;19.072;2022-09-09T12:07:30;100199.41;;;29.90;40.99
62111;BME280;48102;47.526;19.072;2022-09-09T12:10:39;100203.37;;;30.00;36.63
62111;BME280;48102;47.526;19.072;2022-09-09T12:13:52;100198.41;;;30.11;38.07
62111;BME280;48102;47.526;19.072;2022-09-09T12:16:55;100211.19;;;30.96;38.70
62111;BME280;48102;47.526;19.072;2022-09-09T12:20:31;100212.25;;;30.76;36.37
62111;BME280;48102;47.526;19.072;2022-09-09T12:24:02;100219.25;;;29.90;36.53
62111;BME280;48102;47.526;19.072;2022-09-09T12:27:08;100222.25;;;30.22;39.05
62111;BME280;48102;47.526;19.072;2022-09-09T12:30:17;100211.03;;;31.43;36.63
62111;BME280;48102;47.526;19.072;2022-09-09T12:33:19;100212.63;;;32.84;35.31
62111;BME280;48102;47.526;19.072;2022-09-09T12:36:28;100192.31;;;34.13;33.70
62111;BME280;48102;47.526;19.072;2022-09-09T12:39:39;100186.66;;;34.38;31.03
62111;BME280;48102;47.526;19.072;2022-09-09T12:42:46;100193.84;;;34.98;31.04
62111;BME280;48102;47.526;19.072;2022-09-09T12:45:50;100189.53;;;36.28;28.06
62111;BME280;48102;47.526;19.072;2022-09-09T12:48:59;100185.59;;;38.81;25.92
62111;BME280;48102;47.526;19.072;2022-09-09T12:55:31;100178.16;;;43.66;19.49
62111;BME280;48102;47.526;19.072;2022-09-09T12:58:45;100164.94;;;44.74;18.73
62111;BME280;48102;47.526;19.072;2022-09-09T13:01:58;100155.25;;;46.62;17.01
62111;BME280;48102;47.526;19.072;2022-09-09T13:05:21;100162.25;;;47.73;15.46
62111;BME280;48102;47.526;19.072;2022-09-09T13:08:24;100155.75;;;49.31;14.13
62111;BME280;48102;47.526;19.072;2022-09-09T13:11:38;100147.03;;;49.33;14.43
62111;BME280;48102;47.526;19.072;2022-09-09T13:14:47;100135.19;;;49.90;14.18
62111;BME280;48102;47.526;19.072;2022-09-09T13:18:04;100130.09;;;51.79;12.77
62111;BME280;48102;47.526;19.072;2022-09-09T13:21:08;100125.59;;;51.90;12.15
62111;BME280;48102;47.526;19.072;2022-09-09T13:24:33;100114.28;;;50.82;13.27
62111;BME280;48102;47.526;19.072;2022-09-09T13:27:38;100109.56;;;51.35;12.66
62111;BME280;48102;47.526;19.072;2022-09-09T13:30:41;100102.25;;;50.32;12.41
62111;BME280;48102;47.526;19.072;2022-09-09T13:33:46;100090.84;;;45.56;16.21
62111;BME280;48102;47.526;19.072;2022-09-09T13:36:49;100090.47;;;41.28;19.64
62111;BME280;48102;47.526;19.072;2022-09-09T13:39:53;100081.63;;;39.24;22.30
62111;BME280;48102;47.526;19.072;2022-09-09T13:42:57;100071.19;;;38.21;23.79
62111;BME280;48102;47.526;19.072;2022-09-09T13:46:03;100072.78;;;36.98;24.03
62111;BME280;48102;47.526;19.072;2022-09-09T13:52:13;100064.63;;;33.49;30.49
62111;BME280;48102;47.526;19.072;2022-09-09T13:55:17;100063.25;;;33.39;31.65
62111;BME280;48102;47.526;19.072;2022-09-09T13:58:20;100060.38;;;32.86;30.33
62111;BME280;48102;47.526;19.072;2022-09-09T14:01:25;100048.97;;;33.37;28.42
62111;BME280;48102;47.526;19.072;2022-09-09T14:04:31;100050.16;;;33.60;29.83
62111;BME280;48102;47.526;19.072;2022-09-09T14:07:34;100055.69;;;35.34;26.70
62111;BME280;48102;47.526;19.072;2022-09-09T14:10:36;100050.25;;;39.35;20.76
62111;BME280;48102;47.526;19.072;2022-09-09T14:13:39;100049.88;;;38.01;23.77
62111;BME280;48102;47.526;19.072;2022-09-09T14:16:42;100032.66;;;35.81;26.11
62111;BME280;48102;47.526;19.072;2022-09-09T14:19:45;100028.97;;;35.13;28.67
62111;BME280;48102;47.526;19.072;2022-09-09T14:22:48;100029.44;;;34.81;30.39
62111;BME280;48102;47.526;19.072;2022-09-09T14:25:51;100018.34;;;33.77;27.09
62111;BME280;48102;47.526;19.072;2022-09-09T14:28:54;100014.81;;;32.86;31.65
62111;BME280;48102;47.526;19.072;2022-09-09T14:31:57;100023.66;;;31.58;29.72
62111;BME280;48102;47.526;19.072;2022-09-09T14:35:03;100023.75;;;30.62;31.11
62111;BME280;48102;47.526;19.072;2022-09-09T14:38:07;100022.09;;;30.54;33.73
62111;BME280;48102;47.526;19.072;2022-09-09T14:41:12;100019.28;;;30.74;36.72
62111;BME280;48102;47.526;19.072;2022-09-09T14:44:15;100023.94;;;31.75;34.75
62111;BME280;48102;47.526;19.072;2022-09-09T14:47:18;100011.50;;;32.66;29.65
62111;BME280;48102;47.526;19.072;2022-09-09T14:50:22;100012.78;;;32.63;31.63
62111;BME280;48102;47.526;19.072;2022-09-09T14:53:25;100010.63;;;32.10;30.52
62111;BME280;48102;47.526;19.072;2022-09-09T14:56:30;100008.31;;;31.01;30.17
62111;BME280;48102;47.526;19.072;2022-09-09T14:59:33;100019.13;;;31.07;32.59
62111;BME280;48102;47.526;19.072;2022-09-09T15:02:36;100017.50;;;30.99;35.67
62111;BME280;48102;47.526;19.072;2022-09-09T15:05:39;100019.63;;;30.97;36.34
62111;BME280;48102;47.526;19.072;2022-09-09T15:08:44;100011.75;;;30.69;36.27
62111;BME280;48102;47.526;19.072;2022-09-09T15:11:47;100007.53;;;30.22;32.12
62111;BME280;48102;47.526;19.072;2022-09-09T15:14:49;100017.78;;;29.73;32.58
62111;BME280;48102;47.526;19.072;2022-09-09T15:17:52;100014.81;;;29.29;33.51
62111;BME280;48102;47.526;19.072;2022-09-09T15:20:55;100021.47;;;29.13;33.42
62111;BME280;48102;47.526;19.072;2022-09-09T15:23:59;100020.44;;;29.27;34.63
62111;BME280;48102;47.526;19.072;2022-09-09T15:27:02;100021.38;;;29.67;31.67
